Reynoldsville, Pennsylvania
Current Conditions -  °F | °C
As of 2:53 AM on Saturday 22 Nov 2014 (Local Time) from KDUJ Reporting Station
Clear Clear  
Wind Chill: -10°   Ceiling: Unl
Heat Index: -10°   Visibility: 10mi
Dew Point: -14°   Wind: 3mph
Humidity: 74%   Direction: 200°SSW
Pressure: 30.36"   Gusts: NA
Location:  41.1°N, 78.89°W
Report Text: KDUJ 220753Z AUTO 20003KT 10SM CLR M10/M14 A3036 RMK AO2 SLP312 T11001139
Loading
Personal Weather Stations






























Interactive Weather Map New forecast layout! Learn more

10-Day Weather Forecast

Advertisements
Track Severe Weather on mobile